sensor_id;sensor_type;location;lat;lon;timestamp;P1;durP1;ratioP1;P2;durP2;ratioP2
70026;SDS011;57506;50.092;15.804;2023-02-11T00:03:54;78.38;;;30.00;;
70026;SDS011;57506;50.092;15.804;2023-02-11T00:06:20;76.03;;;30.58;;
70026;SDS011;57506;50.092;15.804;2023-02-11T00:08:46;74.75;;;31.23;;
70026;SDS011;57506;50.092;15.804;2023-02-11T00:11:12;84.32;;;30.20;;
70026;SDS011;57506;50.092;15.804;2023-02-11T00:13:40;80.45;;;30.90;;
70026;SDS011;57506;50.092;15.804;2023-02-11T00:16:07;77.38;;;29.20;;
70026;SDS011;57506;50.092;15.804;2023-02-11T00:18:38;72.47;;;29.27;;
70026;SDS011;57506;50.092;15.804;2023-02-11T00:21:14;76.32;;;29.80;;
70026;SDS011;57506;50.092;15.804;2023-02-11T00:23:41;75.50;;;30.10;;
70026;SDS011;57506;50.092;15.804;2023-02-11T00:26:14;83.95;;;32.03;;
70026;SDS011;57506;50.092;15.804;2023-02-11T00:28:45;82.03;;;31.65;;
70026;SDS011;57506;50.092;15.804;2023-02-11T00:31:13;88.22;;;34.58;;
70026;SDS011;57506;50.092;15.804;2023-02-11T00:33:40;90.10;;;33.30;;
70026;SDS011;57506;50.092;15.804;2023-02-11T00:36:06;85.77;;;33.23;;
70026;SDS011;57506;50.092;15.804;2023-02-11T00:38:35;90.45;;;32.65;;
70026;SDS011;57506;50.092;15.804;2023-02-11T00:41:01;87.65;;;32.20;;
70026;SDS011;57506;50.092;15.804;2023-02-11T00:43:26;94.18;;;33.97;;
70026;SDS011;57506;50.092;15.804;2023-02-11T00:45:52;90.83;;;33.97;;
70026;SDS011;57506;50.092;15.804;2023-02-11T00:48:17;98.13;;;36.20;;
70026;SDS011;57506;50.092;15.804;2023-02-11T00:50:43;92.30;;;34.83;;
70026;SDS011;57506;50.092;15.804;2023-02-11T00:53:08;91.07;;;34.10;;
70026;SDS011;57506;50.092;15.804;2023-02-11T00:55:34;89.43;;;34.00;;
70026;SDS011;57506;50.092;15.804;2023-02-11T00:58:00;86.93;;;33.80;;
70026;SDS011;57506;50.092;15.804;2023-02-11T01:00:25;92.93;;;34.00;;
70026;SDS011;57506;50.092;15.804;2023-02-11T01:02:51;85.47;;;33.37;;
70026;SDS011;57506;50.092;15.804;2023-02-11T01:05:17;85.78;;;32.00;;
70026;SDS011;57506;50.092;15.804;2023-02-11T01:07:43;87.32;;;32.47;;
70026;SDS011;57506;50.092;15.804;2023-02-11T01:10:09;82.55;;;32.75;;
70026;SDS011;57506;50.092;15.804;2023-02-11T01:12:35;75.63;;;31.48;;
70026;SDS011;57506;50.092;15.804;2023-02-11T01:15:01;76.43;;;31.17;;
70026;SDS011;57506;50.092;15.804;2023-02-11T01:17:27;81.43;;;30.73;;
70026;SDS011;57506;50.092;15.804;2023-02-11T01:19:53;78.60;;;29.90;;
70026;SDS011;57506;50.092;15.804;2023-02-11T01:22:18;89.30;;;32.73;;
70026;SDS011;57506;50.092;15.804;2023-02-11T01:24:44;81.67;;;30.63;;
70026;SDS011;57506;50.092;15.804;2023-02-11T01:27:09;76.05;;;30.55;;
70026;SDS011;57506;50.092;15.804;2023-02-11T01:29:35;78.07;;;30.07;;
70026;SDS011;57506;50.092;15.804;2023-02-11T01:32:00;73.50;;;30.43;;
70026;SDS011;57506;50.092;15.804;2023-02-11T01:34:26;72.40;;;30.38;;
70026;SDS011;57506;50.092;15.804;2023-02-11T01:36:55;72.00;;;28.40;;
70026;SDS011;57506;50.092;15.804;2023-02-11T01:39:22;73.85;;;29.23;;
70026;SDS011;57506;50.092;15.804;2023-02-11T01:41:48;70.43;;;28.42;;
70026;SDS011;57506;50.092;15.804;2023-02-11T01:44:24;72.87;;;29.73;;
70026;SDS011;57506;50.092;15.804;2023-02-11T01:46:53;75.25;;;29.02;;
70026;SDS011;57506;50.092;15.804;2023-02-11T01:49:30;78.13;;;30.63;;
70026;SDS011;57506;50.092;15.804;2023-02-11T01:52:05;72.33;;;28.20;;
70026;SDS011;57506;50.092;15.804;2023-02-11T01:54:39;78.90;;;31.35;;
70026;SDS011;57506;50.092;15.804;2023-02-11T01:57:27;70.10;;;27.95;;
70026;SDS011;57506;50.092;15.804;2023-02-11T02:08:06;76.40;;;30.08;;
70026;SDS011;57506;50.092;15.804;2023-02-11T02:10:43;91.47;;;32.00;;
70026;SDS011;57506;50.092;15.804;2023-02-11T02:13:12;83.60;;;31.83;;
70026;SDS011;57506;50.092;15.804;2023-02-11T02:15:51;78.30;;;31.33;;
70026;SDS011;57506;50.092;15.804;2023-02-11T02:31:56;84.72;;;33.17;;
70026;SDS011;57506;50.092;15.804;2023-02-11T02:34:41;88.93;;;33.05;;
70026;SDS011;57506;50.092;15.804;2023-02-11T02:37:16;88.55;;;33.95;;
70026;SDS011;57506;50.092;15.804;2023-02-11T02:39:48;89.35;;;33.05;;
70026;SDS011;57506;50.092;15.804;2023-02-11T02:42:14;91.10;;;31.87;;
70026;SDS011;57506;50.092;15.804;2023-02-11T02:44:46;85.75;;;32.95;;
70026;SDS011;57506;50.092;15.804;2023-02-11T02:47:13;82.07;;;31.58;;
70026;SDS011;57506;50.092;15.804;2023-02-11T02:49:38;84.13;;;30.70;;
70026;SDS011;57506;50.092;15.804;2023-02-11T02:54:53;79.07;;;31.07;;
70026;SDS011;57506;50.092;15.804;2023-02-11T03:05:21;82.10;;;32.50;;
70026;SDS011;57506;50.092;15.804;2023-02-11T03:08:01;75.93;;;30.47;;
70026;SDS011;57506;50.092;15.804;2023-02-11T03:10:42;84.38;;;31.70;;
70026;SDS011;57506;50.092;15.804;2023-02-11T03:13:10;77.97;;;29.90;;
70026;SDS011;57506;50.092;15.804;2023-02-11T03:15:42;79.38;;;31.17;;
70026;SDS011;57506;50.092;15.804;2023-02-11T03:18:12;88.38;;;32.15;;
70026;SDS011;57506;50.092;15.804;2023-02-11T03:20:42;79.33;;;31.60;;
70026;SDS011;57506;50.092;15.804;2023-02-11T03:25:56;87.88;;;33.40;;
70026;SDS011;57506;50.092;15.804;2023-02-11T03:31:16;84.07;;;33.05;;
70026;SDS011;57506;50.092;15.804;2023-02-11T03:36:18;83.00;;;32.00;;
70026;SDS011;57506;50.092;15.804;2023-02-11T03:38:53;82.18;;;32.90;;
70026;SDS011;57506;50.092;15.804;2023-02-11T03:41:22;85.38;;;32.42;;
70026;SDS011;57506;50.092;15.804;2023-02-11T03:43:57;76.38;;;30.70;;
70026;SDS011;57506;50.092;15.804;2023-02-11T03:46:34;79.33;;;30.77;;
70026;SDS011;57506;50.092;15.804;2023-02-11T03:49:05;79.55;;;30.90;;
70026;SDS011;57506;50.092;15.804;2023-02-11T03:51:35;82.97;;;33.20;;
70026;SDS011;57506;50.092;15.804;2023-02-11T03:54:03;83.22;;;32.13;;
70026;SDS011;57506;50.092;15.804;2023-02-11T03:56:35;86.10;;;31.48;;
70026;SDS011;57506;50.092;15.804;2023-02-11T03:59:06;86.47;;;31.60;;
70026;SDS011;57506;50.092;15.804;2023-02-11T04:01:32;82.82;;;30.55;;
70026;SDS011;57506;50.092;15.804;2023-02-11T04:03:58;80.32;;;30.90;;
70026;SDS011;57506;50.092;15.804;2023-02-11T04:06:23;76.60;;;30.63;;
70026;SDS011;57506;50.092;15.804;2023-02-11T04:08:49;81.80;;;29.43;;
70026;SDS011;57506;50.092;15.804;2023-02-11T04:11:14;80.03;;;30.60;;
70026;SDS011;57506;50.092;15.804;2023-02-11T04:13:40;69.30;;;28.73;;
70026;SDS011;57506;50.092;15.804;2023-02-11T04:16:05;77.30;;;28.23;;
70026;SDS011;57506;50.092;15.804;2023-02-11T04:18:31;73.28;;;29.58;;
70026;SDS011;57506;50.092;15.804;2023-02-11T04:20:56;71.32;;;27.88;;
70026;SDS011;57506;50.092;15.804;2023-02-11T04:23:22;69.07;;;27.67;;
70026;SDS011;57506;50.092;15.804;2023-02-11T04:25:48;70.00;;;27.40;;
70026;SDS011;57506;50.092;15.804;2023-02-11T04:28:14;65.10;;;26.25;;
70026;SDS011;57506;50.092;15.804;2023-02-11T04:30:39;71.87;;;27.23;;
70026;SDS011;57506;50.092;15.804;2023-02-11T04:33:05;64.30;;;26.58;;
70026;SDS011;57506;50.092;15.804;2023-02-11T04:35:30;63.30;;;24.80;;
70026;SDS011;57506;50.092;15.804;2023-02-11T04:37:56;61.37;;;25.63;;
70026;SDS011;57506;50.092;15.804;2023-02-11T04:40:21;60.67;;;25.50;;
70026;SDS011;57506;50.092;15.804;2023-02-11T04:42:47;66.72;;;27.63;;
70026;SDS011;57506;50.092;15.804;2023-02-11T04:45:12;72.80;;;27.13;;
70026;SDS011;57506;50.092;15.804;2023-02-11T04:47:38;73.15;;;28.60;;
70026;SDS011;57506;50.092;15.804;2023-02-11T04:50:03;67.20;;;26.67;;
70026;SDS011;57506;50.092;15.804;2023-02-11T04:52:29;64.32;;;26.23;;
70026;SDS011;57506;50.092;15.804;2023-02-11T04:54:55;69.83;;;25.60;;
70026;SDS011;57506;50.092;15.804;2023-02-11T04:57:20;66.93;;;27.10;;
70026;SDS011;57506;50.092;15.804;2023-02-11T04:59:46;64.68;;;25.75;;
70026;SDS011;57506;50.092;15.804;2023-02-11T05:02:14;62.08;;;25.05;;
70026;SDS011;57506;50.092;15.804;2023-02-11T05:04:39;59.85;;;25.38;;
70026;SDS011;57506;50.092;15.804;2023-02-11T05:07:05;67.33;;;25.37;;
70026;SDS011;57506;50.092;15.804;2023-02-11T05:09:30;67.00;;;25.80;;
70026;SDS011;57506;50.092;15.804;2023-02-11T05:11:56;72.40;;;26.95;;
70026;SDS011;57506;50.092;15.804;2023-02-11T05:14:22;67.10;;;27.17;;
70026;SDS011;57506;50.092;15.804;2023-02-11T05:16:47;77.30;;;27.07;;
70026;SDS011;57506;50.092;15.804;2023-02-11T05:19:13;72.20;;;26.43;;
70026;SDS011;57506;50.092;15.804;2023-02-11T05:21:38;66.85;;;25.45;;
70026;SDS011;57506;50.092;15.804;2023-02-11T05:24:04;65.50;;;26.03;;
70026;SDS011;57506;50.092;15.804;2023-02-11T05:26:29;59.95;;;25.50;;
70026;SDS011;57506;50.092;15.804;2023-02-11T05:28:55;62.80;;;24.90;;
70026;SDS011;57506;50.092;15.804;2023-02-11T05:31:21;66.93;;;25.05;;
70026;SDS011;57506;50.092;15.804;2023-02-11T05:33:46;58.30;;;22.47;;
70026;SDS011;57506;50.092;15.804;2023-02-11T05:36:12;59.57;;;23.77;;
70026;SDS011;57506;50.092;15.804;2023-02-11T05:38:38;54.72;;;24.33;;
70026;SDS011;57506;50.092;15.804;2023-02-11T05:41:05;56.53;;;24.10;;
70026;SDS011;57506;50.092;15.804;2023-02-11T05:43:31;56.08;;;23.80;;
70026;SDS011;57506;50.092;15.804;2023-02-11T05:45:56;58.40;;;24.17;;
70026;SDS011;57506;50.092;15.804;2023-02-11T05:48:22;57.43;;;24.17;;
70026;SDS011;57506;50.092;15.804;2023-02-11T05:50:47;60.80;;;23.27;;
70026;SDS011;57506;50.092;15.804;2023-02-11T05:53:13;64.25;;;24.67;;
70026;SDS011;57506;50.092;15.804;2023-02-11T05:55:38;74.77;;;30.87;;
70026;SDS011;57506;50.092;15.804;2023-02-11T05:58:04;61.57;;;25.73;;
70026;SDS011;57506;50.092;15.804;2023-02-11T06:00:30;63.70;;;27.48;;
70026;SDS011;57506;50.092;15.804;2023-02-11T06:02:56;69.10;;;27.30;;
70026;SDS011;57506;50.092;15.804;2023-02-11T06:05:21;64.18;;;26.40;;
70026;SDS011;57506;50.092;15.804;2023-02-11T06:07:47;87.40;;;32.93;;
70026;SDS011;57506;50.092;15.804;2023-02-11T06:10:12;72.13;;;30.63;;
70026;SDS011;57506;50.092;15.804;2023-02-11T06:12:38;68.65;;;28.67;;
70026;SDS011;57506;50.092;15.804;2023-02-11T06:15:04;60.42;;;25.70;;
70026;SDS011;57506;50.092;15.804;2023-02-11T06:17:30;75.90;;;29.92;;
70026;SDS011;57506;50.092;15.804;2023-02-11T06:19:57;76.07;;;30.80;;
70026;SDS011;57506;50.092;15.804;2023-02-11T06:22:23;60.03;;;25.02;;
70026;SDS011;57506;50.092;15.804;2023-02-11T06:24:50;60.10;;;25.05;;
70026;SDS011;57506;50.092;15.804;2023-02-11T06:27:16;61.03;;;24.50;;
70026;SDS011;57506;50.092;15.804;2023-02-11T06:29:43;61.58;;;25.02;;
70026;SDS011;57506;50.092;15.804;2023-02-11T06:32:08;57.50;;;25.40;;
70026;SDS011;57506;50.092;15.804;2023-02-11T06:34:34;69.50;;;25.63;;
70026;SDS011;57506;50.092;15.804;2023-02-11T06:36:59;63.40;;;24.65;;
70026;SDS011;57506;50.092;15.804;2023-02-11T06:39:25;59.78;;;24.10;;
70026;SDS011;57506;50.092;15.804;2023-02-11T06:41:50;56.30;;;23.60;;
70026;SDS011;57506;50.092;15.804;2023-02-11T06:44:16;61.17;;;24.43;;
70026;SDS011;57506;50.092;15.804;2023-02-11T06:46:41;55.80;;;23.98;;
70026;SDS011;57506;50.092;15.804;2023-02-11T06:49:07;53.43;;;23.83;;
70026;SDS011;57506;50.092;15.804;2023-02-11T06:51:32;60.27;;;24.40;;
70026;SDS011;57506;50.092;15.804;2023-02-11T06:53:57;56.83;;;24.17;;
70026;SDS011;57506;50.092;15.804;2023-02-11T06:56:23;56.80;;;24.07;;
70026;SDS011;57506;50.092;15.804;2023-02-11T06:58:52;54.28;;;22.17;;
70026;SDS011;57506;50.092;15.804;2023-02-11T07:01:19;50.30;;;22.70;;
70026;SDS011;57506;50.092;15.804;2023-02-11T07:03:45;68.53;;;27.55;;
70026;SDS011;57506;50.092;15.804;2023-02-11T07:06:12;58.40;;;26.93;;
70026;SDS011;57506;50.092;15.804;2023-02-11T07:08:40;59.53;;;24.88;;
70026;SDS011;57506;50.092;15.804;2023-02-11T07:11:11;52.20;;;24.85;;
70026;SDS011;57506;50.092;15.804;2023-02-11T07:13:37;60.47;;;23.47;;
70026;SDS011;57506;50.092;15.804;2023-02-11T07:16:07;55.10;;;23.60;;
70026;SDS011;57506;50.092;15.804;2023-02-11T07:18:34;61.40;;;24.95;;
70026;SDS011;57506;50.092;15.804;2023-02-11T07:21:03;56.70;;;24.93;;
70026;SDS011;57506;50.092;15.804;2023-02-11T07:23:32;54.00;;;23.33;;
70026;SDS011;57506;50.092;15.804;2023-02-11T07:26:05;56.67;;;23.60;;
70026;SDS011;57506;50.092;15.804;2023-02-11T07:28:33;61.55;;;26.23;;
70026;SDS011;57506;50.092;15.804;2023-02-11T07:33:55;62.00;;;26.00;;
70026;SDS011;57506;50.092;15.804;2023-02-11T07:36:24;55.53;;;24.58;;
70026;SDS011;57506;50.092;15.804;2023-02-11T07:38:50;62.47;;;24.60;;
70026;SDS011;57506;50.092;15.804;2023-02-11T07:41:16;56.60;;;24.95;;
70026;SDS011;57506;50.092;15.804;2023-02-11T07:43:44;56.40;;;24.77;;
70026;SDS011;57506;50.092;15.804;2023-02-11T07:46:12;58.20;;;26.53;;
70026;SDS011;57506;50.092;15.804;2023-02-11T07:48:43;61.42;;;24.55;;
70026;SDS011;57506;50.092;15.804;2023-02-11T07:51:16;54.47;;;24.47;;
70026;SDS011;57506;50.092;15.804;2023-02-11T07:53:43;53.85;;;26.50;;
70026;SDS011;57506;50.092;15.804;2023-02-11T07:56:10;61.92;;;24.95;;
70026;SDS011;57506;50.092;15.804;2023-02-11T07:58:37;57.33;;;24.70;;
70026;SDS011;57506;50.092;15.804;2023-02-11T08:01:04;53.20;;;24.88;;
70026;SDS011;57506;50.092;15.804;2023-02-11T08:03:31;54.05;;;25.45;;
70026;SDS011;57506;50.092;15.804;2023-02-11T08:05:57;53.33;;;23.70;;
70026;SDS011;57506;50.092;15.804;2023-02-11T08:08:24;58.33;;;26.20;;
70026;SDS011;57506;50.092;15.804;2023-02-11T08:10:51;59.95;;;27.20;;
70026;SDS011;57506;50.092;15.804;2023-02-11T08:13:17;57.70;;;25.93;;
70026;SDS011;57506;50.092;15.804;2023-02-11T08:15:43;53.00;;;25.02;;
70026;SDS011;57506;50.092;15.804;2023-02-11T08:18:09;53.03;;;24.73;;
70026;SDS011;57506;50.092;15.804;2023-02-11T08:20:34;57.63;;;26.65;;
70026;SDS011;57506;50.092;15.804;2023-02-11T08:23:00;55.27;;;24.57;;
70026;SDS011;57506;50.092;15.804;2023-02-11T08:25:26;55.63;;;24.75;;
70026;SDS011;57506;50.092;15.804;2023-02-11T08:27:51;59.97;;;24.93;;
70026;SDS011;57506;50.092;15.804;2023-02-11T08:30:17;52.63;;;24.27;;
70026;SDS011;57506;50.092;15.804;2023-02-11T08:32:43;56.00;;;23.73;;
70026;SDS011;57506;50.092;15.804;2023-02-11T08:35:08;59.07;;;25.53;;
70026;SDS011;57506;50.092;15.804;2023-02-11T08:37:36;61.20;;;28.10;;
70026;SDS011;57506;50.092;15.804;2023-02-11T08:40:02;56.20;;;26.23;;
70026;SDS011;57506;50.092;15.804;2023-02-11T08:42:28;51.28;;;24.15;;
70026;SDS011;57506;50.092;15.804;2023-02-11T08:44:53;49.97;;;22.77;;
70026;SDS011;57506;50.092;15.804;2023-02-11T08:47:19;44.20;;;20.73;;
70026;SDS011;57506;50.092;15.804;2023-02-11T08:49:44;45.30;;;20.80;;
70026;SDS011;57506;50.092;15.804;2023-02-11T08:52:10;48.27;;;21.83;;
70026;SDS011;57506;50.092;15.804;2023-02-11T08:54:36;44.65;;;21.00;;
70026;SDS011;57506;50.092;15.804;2023-02-11T08:57:01;41.20;;;19.43;;
70026;SDS011;57506;50.092;15.804;2023-02-11T08:59:27;41.80;;;19.77;;
70026;SDS011;57506;50.092;15.804;2023-02-11T09:01:53;39.00;;;20.13;;
70026;SDS011;57506;50.092;15.804;2023-02-11T09:04:19;42.55;;;19.70;;
70026;SDS011;57506;50.092;15.804;2023-02-11T09:06:44;43.20;;;20.23;;
70026;SDS011;57506;50.092;15.804;2023-02-11T09:09:11;41.53;;;20.73;;
70026;SDS011;57506;50.092;15.804;2023-02-11T09:11:38;42.73;;;20.60;;
70026;SDS011;57506;50.092;15.804;2023-02-11T09:14:05;40.47;;;20.90;;
70026;SDS011;57506;50.092;15.804;2023-02-11T09:16:32;40.45;;;20.42;;
70026;SDS011;57506;50.092;15.804;2023-02-11T09:19:00;47.42;;;22.67;;
70026;SDS011;57506;50.092;15.804;2023-02-11T09:21:26;47.20;;;21.52;;
70026;SDS011;57506;50.092;15.804;2023-02-11T09:23:52;47.57;;;21.40;;
70026;SDS011;57506;50.092;15.804;2023-02-11T09:26:19;44.80;;;21.02;;
70026;SDS011;57506;50.092;15.804;2023-02-11T09:28:47;43.92;;;21.00;;
70026;SDS011;57506;50.092;15.804;2023-02-11T09:31:14;48.17;;;20.77;;
70026;SDS011;57506;50.092;15.804;2023-02-11T09:33:42;62.83;;;26.50;;
70026;SDS011;57506;50.092;15.804;2023-02-11T09:36:35;42.72;;;20.75;;
70026;SDS011;57506;50.092;15.804;2023-02-11T09:39:03;40.30;;;18.10;;
70026;SDS011;57506;50.092;15.804;2023-02-11T09:44:44;36.50;;;17.83;;
70026;SDS011;57506;50.092;15.804;2023-02-11T09:47:21;37.47;;;18.83;;
70026;SDS011;57506;50.092;15.804;2023-02-11T09:49:53;44.75;;;19.15;;
70026;SDS011;57506;50.092;15.804;2023-02-11T09:52:29;35.38;;;17.73;;
70026;SDS011;57506;50.092;15.804;2023-02-11T09:55:04;36.28;;;17.73;;
70026;SDS011;57506;50.092;15.804;2023-02-11T09:57:40;34.80;;;15.87;;
70026;SDS011;57506;50.092;15.804;2023-02-11T10:00:16;34.08;;;15.95;;
70026;SDS011;57506;50.092;15.804;2023-02-11T10:03:08;32.17;;;15.63;;
70026;SDS011;57506;50.092;15.804;2023-02-11T10:08:19;32.17;;;14.43;;
70026;SDS011;57506;50.092;15.804;2023-02-11T10:23:45;25.97;;;11.30;;
70026;SDS011;57506;50.092;15.804;2023-02-11T10:26:16;25.25;;;11.80;;
70026;SDS011;57506;50.092;15.804;2023-02-11T10:28:43;24.45;;;11.90;;
70026;SDS011;57506;50.092;15.804;2023-02-11T10:31:16;26.92;;;11.77;;
70026;SDS011;57506;50.092;15.804;2023-02-11T10:36:28;27.10;;;12.17;;
70026;SDS011;57506;50.092;15.804;2023-02-11T10:39:13;28.77;;;11.90;;
70026;SDS011;57506;50.092;15.804;2023-02-11T10:41:45;23.42;;;11.88;;
70026;SDS011;57506;50.092;15.804;2023-02-11T10:44:15;29.52;;;12.57;;
70026;SDS011;57506;50.092;15.804;2023-02-11T10:46:46;24.40;;;11.45;;
70026;SDS011;57506;50.092;15.804;2023-02-11T10:49:31;24.73;;;12.60;;
70026;SDS011;57506;50.092;15.804;2023-02-11T10:52:12;27.33;;;11.63;;
70026;SDS011;57506;50.092;15.804;2023-02-11T10:54:39;30.45;;;11.05;;
70026;SDS011;57506;50.092;15.804;2023-02-11T10:57:05;23.17;;;10.73;;
70026;SDS011;57506;50.092;15.804;2023-02-11T10:59:35;24.38;;;11.95;;
70026;SDS011;57506;50.092;15.804;2023-02-11T11:05:17;29.58;;;12.20;;
70026;SDS011;57506;50.092;15.804;2023-02-11T11:07:55;26.33;;;12.13;;
70026;SDS011;57506;50.092;15.804;2023-02-11T11:10:44;27.27;;;13.37;;
70026;SDS011;57506;50.092;15.804;2023-02-11T11:18:38;25.10;;;12.48;;
70026;SDS011;57506;50.092;15.804;2023-02-11T11:21:10;26.48;;;12.80;;
70026;SDS011;57506;50.092;15.804;2023-02-11T11:23:39;25.53;;;13.03;;
70026;SDS011;57506;50.092;15.804;2023-02-11T11:26:15;25.63;;;12.35;;
70026;SDS011;57506;50.092;15.804;2023-02-11T11:28:49;29.85;;;13.07;;
70026;SDS011;57506;50.092;15.804;2023-02-11T11:31:44;25.77;;;12.20;;
70026;SDS011;57506;50.092;15.804;2023-02-11T11:36:50;25.20;;;12.40;;
70026;SDS011;57506;50.092;15.804;2023-02-11T11:39:19;27.83;;;12.57;;
70026;SDS011;57506;50.092;15.804;2023-02-11T11:41:55;28.98;;;13.00;;
70026;SDS011;57506;50.092;15.804;2023-02-11T11:47:34;26.15;;;11.73;;
70026;SDS011;57506;50.092;15.804;2023-02-11T11:52:49;25.63;;;11.35;;
70026;SDS011;57506;50.092;15.804;2023-02-11T11:55:21;28.95;;;13.43;;
70026;SDS011;57506;50.092;15.804;2023-02-11T11:57:53;23.43;;;10.33;;
70026;SDS011;57506;50.092;15.804;2023-02-11T12:00:20;27.52;;;13.10;;
70026;SDS011;57506;50.092;15.804;2023-02-11T12:33:54;30.75;;;13.18;;
70026;SDS011;57506;50.092;15.804;2023-02-11T12:39:23;30.07;;;13.80;;
70026;SDS011;57506;50.092;15.804;2023-02-11T12:42:24;27.88;;;13.18;;
70026;SDS011;57506;50.092;15.804;2023-02-11T12:59:30;27.63;;;12.88;;
70026;SDS011;57506;50.092;15.804;2023-02-11T13:05:43;27.08;;;12.57;;
70026;SDS011;57506;50.092;15.804;2023-02-11T13:10:46;29.10;;;13.32;;
70026;SDS011;57506;50.092;15.804;2023-02-11T13:13:18;26.60;;;12.98;;
70026;SDS011;57506;50.092;15.804;2023-02-11T13:18:44;28.38;;;12.95;;
70026;SDS011;57506;50.092;15.804;2023-02-11T13:29:35;27.15;;;13.07;;
70026;SDS011;57506;50.092;15.804;2023-02-11T13:32:22;32.47;;;14.35;;
70026;SDS011;57506;50.092;15.804;2023-02-11T13:39:55;27.77;;;13.63;;
70026;SDS011;57506;50.092;15.804;2023-02-11T13:42:21;23.60;;;12.25;;
70026;SDS011;57506;50.092;15.804;2023-02-11T13:44:47;31.00;;;13.25;;
70026;SDS011;57506;50.092;15.804;2023-02-11T13:47:28;28.08;;;13.90;;
70026;SDS011;57506;50.092;15.804;2023-02-11T13:49:56;31.17;;;13.53;;
70026;SDS011;57506;50.092;15.804;2023-02-11T13:52:34;27.95;;;13.13;;
70026;SDS011;57506;50.092;15.804;2023-02-11T13:55:08;26.00;;;11.73;;
70026;SDS011;57506;50.092;15.804;2023-02-11T13:57:46;29.70;;;13.93;;
70026;SDS011;57506;50.092;15.804;2023-02-11T14:08:59;26.27;;;12.55;;
70026;SDS011;57506;50.092;15.804;2023-02-11T14:14:14;25.25;;;12.25;;
70026;SDS011;57506;50.092;15.804;2023-02-11T14:19:56;28.83;;;13.00;;
70026;SDS011;57506;50.092;15.804;2023-02-11T14:30:10;25.40;;;12.47;;
70026;SDS011;57506;50.092;15.804;2023-02-11T14:38:01;26.90;;;13.17;;
70026;SDS011;57506;50.092;15.804;2023-02-11T14:40:30;30.88;;;13.18;;
70026;SDS011;57506;50.092;15.804;2023-02-11T14:43:05;26.90;;;12.57;;
70026;SDS011;57506;50.092;15.804;2023-02-11T14:45:37;26.83;;;12.30;;
70026;SDS011;57506;50.092;15.804;2023-02-11T14:48:05;27.37;;;12.80;;
70026;SDS011;57506;50.092;15.804;2023-02-11T14:53:13;25.52;;;11.93;;
70026;SDS011;57506;50.092;15.804;2023-02-11T14:55:42;28.60;;;12.40;;
70026;SDS011;57506;50.092;15.804;2023-02-11T15:00:49;26.97;;;13.23;;
70026;SDS011;57506;50.092;15.804;2023-02-11T15:03:57;27.92;;;12.57;;
70026;SDS011;57506;50.092;15.804;2023-02-11T15:11:40;26.30;;;13.35;;
70026;SDS011;57506;50.092;15.804;2023-02-11T15:14:08;27.97;;;12.73;;
70026;SDS011;57506;50.092;15.804;2023-02-11T15:16:39;25.52;;;12.57;;
70026;SDS011;57506;50.092;15.804;2023-02-11T15:19:27;26.92;;;12.77;;
70026;SDS011;57506;50.092;15.804;2023-02-11T15:21:55;28.50;;;13.40;;
70026;SDS011;57506;50.092;15.804;2023-02-11T15:24:26;27.60;;;13.38;;
70026;SDS011;57506;50.092;15.804;2023-02-11T15:29:47;26.67;;;12.25;;
70026;SDS011;57506;50.092;15.804;2023-02-11T15:32:23;30.23;;;13.88;;
70026;SDS011;57506;50.092;15.804;2023-02-11T15:34:50;31.20;;;14.15;;
70026;SDS011;57506;50.092;15.804;2023-02-11T15:39:47;30.10;;;13.67;;
70026;SDS011;57506;50.092;15.804;2023-02-11T15:47:39;27.23;;;13.23;;
70026;SDS011;57506;50.092;15.804;2023-02-11T15:50:18;27.50;;;13.23;;
70026;SDS011;57506;50.092;15.804;2023-02-11T15:52:49;27.90;;;12.90;;
70026;SDS011;57506;50.092;15.804;2023-02-11T15:55:16;31.92;;;13.45;;
70026;SDS011;57506;50.092;15.804;2023-02-11T15:58:16;28.17;;;14.02;;
70026;SDS011;57506;50.092;15.804;2023-02-11T16:00:36;26.67;;;12.88;;
70026;SDS011;57506;50.092;15.804;2023-02-11T16:03:23;27.65;;;13.32;;
70026;SDS011;57506;50.092;15.804;2023-02-11T16:05:52;25.80;;;12.70;;
70026;SDS011;57506;50.092;15.804;2023-02-11T16:08:25;35.53;;;13.88;;
70026;SDS011;57506;50.092;15.804;2023-02-11T16:10:54;32.60;;;14.50;;
70026;SDS011;57506;50.092;15.804;2023-02-11T16:13:23;27.30;;;13.15;;
70026;SDS011;57506;50.092;15.804;2023-02-11T16:15:59;32.10;;;14.32;;
70026;SDS011;57506;50.092;15.804;2023-02-11T16:18:37;32.07;;;14.07;;
70026;SDS011;57506;50.092;15.804;2023-02-11T16:21:13;30.08;;;13.65;;
70026;SDS011;57506;50.092;15.804;2023-02-11T16:23:48;28.40;;;13.85;;
70026;SDS011;57506;50.092;15.804;2023-02-11T16:26:20;26.95;;;13.20;;
70026;SDS011;57506;50.092;15.804;2023-02-11T16:28:51;25.55;;;13.57;;
70026;SDS011;57506;50.092;15.804;2023-02-11T16:31:17;28.43;;;13.00;;
70026;SDS011;57506;50.092;15.804;2023-02-11T16:33:43;27.70;;;13.93;;
70026;SDS011;57506;50.092;15.804;2023-02-11T16:36:13;32.03;;;14.65;;
70026;SDS011;57506;50.092;15.804;2023-02-11T16:38:41;28.80;;;13.73;;
70026;SDS011;57506;50.092;15.804;2023-02-11T16:41:07;28.60;;;13.18;;
70026;SDS011;57506;50.092;15.804;2023-02-11T16:43:36;33.28;;;15.02;;
70026;SDS011;57506;50.092;15.804;2023-02-11T16:46:01;30.35;;;13.55;;
70026;SDS011;57506;50.092;15.804;2023-02-11T16:48:28;28.77;;;14.13;;
70026;SDS011;57506;50.092;15.804;2023-02-11T16:50:54;28.30;;;13.63;;
70026;SDS011;57506;50.092;15.804;2023-02-11T16:53:23;30.10;;;14.00;;
70026;SDS011;57506;50.092;15.804;2023-02-11T16:55:49;25.63;;;12.75;;
70026;SDS011;57506;50.092;15.804;2023-02-11T16:58:17;27.38;;;14.10;;
70026;SDS011;57506;50.092;15.804;2023-02-11T17:00:43;29.55;;;14.40;;
70026;SDS011;57506;50.092;15.804;2023-02-11T17:03:15;31.77;;;14.50;;
70026;SDS011;57506;50.092;15.804;2023-02-11T17:05:46;28.30;;;14.00;;
70026;SDS011;57506;50.092;15.804;2023-02-11T17:08:12;31.15;;;13.73;;
70026;SDS011;57506;50.092;15.804;2023-02-11T17:10:37;34.17;;;14.10;;
70026;SDS011;57506;50.092;15.804;2023-02-11T17:13:03;28.63;;;14.03;;
70026;SDS011;57506;50.092;15.804;2023-02-11T17:15:29;31.38;;;14.93;;
70026;SDS011;57506;50.092;15.804;2023-02-11T17:17:56;27.13;;;13.33;;
70026;SDS011;57506;50.092;15.804;2023-02-11T17:20:22;33.47;;;14.90;;
70026;SDS011;57506;50.092;15.804;2023-02-11T17:22:48;31.00;;;13.27;;
70026;SDS011;57506;50.092;15.804;2023-02-11T17:25:13;29.80;;;14.35;;
70026;SDS011;57506;50.092;15.804;2023-02-11T17:27:42;30.57;;;14.13;;
70026;SDS011;57506;50.092;15.804;2023-02-11T17:30:08;29.83;;;14.18;;
70026;SDS011;57506;50.092;15.804;2023-02-11T17:32:35;29.00;;;13.32;;
70026;SDS011;57506;50.092;15.804;2023-02-11T17:35:01;30.38;;;14.50;;
70026;SDS011;57506;50.092;15.804;2023-02-11T17:37:27;33.47;;;14.07;;
70026;SDS011;57506;50.092;15.804;2023-02-11T17:39:52;26.65;;;13.52;;
70026;SDS011;57506;50.092;15.804;2023-02-11T17:42:18;30.40;;;14.90;;
70026;SDS011;57506;50.092;15.804;2023-02-11T17:44:44;27.33;;;14.23;;